Detalii statie Agro Teg Srl [ENTEN007]

Toti senzorii

Date Temperatura solului [C]Precipitatii [mm]Viteza vantului [m/s]Voltaj baterie [mV]Leaf Wetness [Min]HC Air temperature [C]HC Relative humidity [%]Punctul de roua [C]
medieminmaxsumasumaultimatimpmedieminmaxmediemediemin
2017-06-25 06:02:26 17.25 16.70 17.92 0.00 0.16 8.43 6.79 15.93 15.34 16.64 93.92 14.95
2017-06-25 07:02:27 19.52 18.58 20.49 0.00 0.02 8.44 0.21 18.25 17.27 19.24 89.33 16.46
2017-06-25 08:02:28 22.80 21.31 24.83 0.00 0.00 8.45 0.21 21.17 20.14 22.19 82.91 18.14
2017-06-25 09:02:26 31.46 26.28 36.12 0.00 0.00 8.46 0.00 24.42 23.03 25.49 70.87 18.76
2017-06-25 10:02:27 46.64 39.35 51.15 0.00 0.00 8.47 0.50 27.10 26.01 27.71 58.34 18.21
2017-06-25 11:02:28 53.12 52.13 54.09 0.00 0.00 8.48 0.00 28.50 27.95 29.13 51.21 17.43
2017-06-25 12:02:26 52.53 47.83 53.90 0.00 0.00 8.48 0.00 29.62 29.34 29.87 46.68 17.01
2017-06-25 13:02:27 48.42 44.39 50.88 0.00 0.00 8.48 0.00 30.32 30.13 30.66 46.92 17.73
2017-06-25 14:02:28 40.45 38.84 41.28 0.00 0.00 8.49 0.00 30.80 30.75 30.88 43.86 17.09
2017-06-25 15:02:26 44.43 42.45 48.02 0.00 0.00 8.49 0.00 31.02 30.89 31.07 44.02 17.34
2017-06-25 16:02:27 40.60 34.79 45.40 0.00 0.00 8.49 0.00 30.68 30.24 30.98 47.80 18.33
2017-06-25 17:02:28 32.34 31.16 33.67 0.00 0.00 8.49 0.00 29.70 29.29 30.04 53.58 19.25
2017-06-25 18:02:26 29.56 28.56 30.51 0.00 0.00 8.49 0.21 28.56 28.12 29.03 61.96 20.54
2017-06-25 19:02:27 26.76 25.49 27.95 0.00 0.00 8.49 2.64 26.54 24.96 27.60 67.80 20.08
2017-06-25 20:02:28 23.75 22.95 24.61 0.00 0.00 8.48 12.43 23.40 22.57 24.06 73.23 18.32
2017-06-25 21:02:26 22.06 21.46 22.90 0.00 0.00 8.47 9.86 21.19 20.45 22.12 78.77 17.36
2017-06-25 22:02:27 20.56 20.30 20.92 0.00 0.00 8.45 13.50 19.40 19.02 19.97 82.85 16.41
2017-06-25 23:02:28 19.58 19.19 19.93 0.00 0.00 8.44 19.86 18.36 18.02 18.72 85.06 15.81
2017-06-26 00:02:26 19.05 18.63 19.35 0.00 0.00 8.43 31.36 17.90 17.62 18.12 88.17 15.91
2017-06-26 01:02:27 18.98 18.42 19.38 0.00 0.00 8.42 56.29 17.90 17.37 18.28 89.92 16.22
2017-06-26 02:02:28 18.20 18.01 18.39 0.00 0.00 8.41 73.14 16.98 16.76 17.12 91.29 15.56
2017-06-26 03:02:26 17.98 17.71 18.28 0.00 0.00 8.40 77.43 16.74 16.36 17.04 92.53 15.52
2017-06-26 04:02:27 17.92 17.68 18.24 0.00 0.00 8.39 75.14 16.46 16.31 16.68 93.32 15.38
2017-06-26 05:02:28 19.92 18.91 20.85 0.00 0.00 8.42 22.29 17.90 17.26 18.58 93.72 16.87
2017-06-26 06:02:26 21.61 21.04 22.31 0.00 0.00 8.44 1.57 19.63 19.00 20.17 88.99 17.76
2017-06-26 07:02:27 23.85 23.30 24.47 0.00 0.00 8.45 0.21 21.52 20.68 22.30 82.34 18.38
2017-06-26 08:02:28 26.81 25.03 28.84 0.00 0.00 8.46 0.21 23.37 22.78 23.90 76.85 19.08
2017-06-26 09:02:26 31.69 29.58 34.07 0.00 0.00 8.47 0.00 24.17 23.90 24.52 73.36 19.10
2017-06-26 10:02:27 42.34 34.52 49.14 0.00 0.00 8.48 0.00 25.38 24.72 26.13 69.97 19.50
2017-06-26 11:02:28 42.42 37.22 49.82 0.00 0.01 8.48 0.00 26.58 26.52 26.71 66.28 19.77
2017-06-26 12:02:26 41.18 35.86 43.32 0.00 0.00 8.48 0.00 27.28 26.59 28.12 66.88 20.58
2017-06-26 13:02:27 43.63 39.27 47.87 0.00 0.00 8.48 0.00 29.10 28.51 29.72 59.36 20.36
2017-06-26 14:02:28 36.48 32.68 41.39 0.00 0.00 8.49 0.00 28.85 28.12 29.72 57.70 19.67
2017-06-26 15:02:26 25.32 22.81 30.20 0.00 0.02 8.48 100.00 23.42 21.17 27.19 77.71 19.14
2017-06-26 16:02:27 23.41 23.28 23.60 0.00 0.00 8.48 100.00 21.08 20.99 21.20 91.79 19.69
2017-06-26 17:02:28 23.00 22.67 23.28 0.00 0.00 8.47 100.00 21.39 21.29 21.49 93.37 20.27
2017-06-26 18:02:26 22.96 22.85 23.12 0.00 0.00 8.47 100.00 20.96 20.86 21.12 92.67 19.73
2017-06-26 19:02:27 22.22 21.77 22.69 0.00 0.00 8.46 90.93 20.85 20.64 21.01 91.94 19.48
2017-06-26 20:02:28 21.56 21.46 21.63 0.00 0.00 8.45 56.21 20.44 20.41 20.50 92.96 19.26
2017-06-26 21:02:26 20.88 20.20 21.35 0.00 0.00 8.44 97.14 19.66 18.79 20.27 92.31 18.37
2017-06-26 22:02:27 19.89 19.83 20.00 0.00 0.00 8.43 20.79 18.40 18.31 18.55 92.01 17.07
2017-06-26 23:02:28 19.46 19.14 19.68 0.00 0.00 8.41 55.64 18.22 17.95 18.40 93.55 17.16
2017-06-27 00:02:26 18.74 18.51 18.98 0.00 0.00 8.41 89.14 17.37 17.11 17.74 93.80 16.36
2017-06-27 01:02:27 18.41 18.20 18.63 0.00 0.00 8.39 96.71 17.14 17.04 17.25 94.83 16.30
2017-06-27 02:02:28 17.76 17.46 17.93 0.00 0.00 8.38 99.14 16.42 16.10 16.65 94.66 15.56
2017-06-27 03:02:26 17.47 17.41 17.52 0.00 0.00 8.37 100.00 15.98 15.96 16.00 95.50 15.26
2017-06-27 04:02:27 17.42 17.29 17.56 0.00 0.00 8.36 100.00 15.89 15.84 16.00 95.86 15.23
2017-06-27 05:02:28 17.64 17.64 17.64 0.00 0.00 8.36 90.71 15.89 15.89 15.89 96.08 15.26